Hastings On Hudson, New York
Current Conditions -  °F | °C
As of 3:56 AM on Thursday 18 Dec 2014 (Local Time) from KHPN Reporting Station
Broken Clouds Broken Clouds  
Wind Chill: 27°   Ceiling: 5000
Heat Index: 37°   Visibility: 9mi
Dew Point: 26°   Wind: 20mph
Humidity: 65%   Direction: 300°WNW
Pressure: 29.86"   Gusts: 29mph
Location:  40.99°N, 73.87°W
Report Text: KHPN 180856Z 30017G25KT 9SM SCT035 BKN050 03/M03 A2986 RMK AO2 SNE55 SLP118 P0000 60000 T00281033 50008
Loading
Personal Weather Stations






























Interactive Weather Map New forecast layout! Learn more

10-Day Weather Forecast

Advertisements
Track Severe Weather on mobile